sensor_id;sensor_type;location;lat;lon;timestamp;P1;durP1;ratioP1;P2;durP2;ratioP2
30020;SDS011;16861;52.294;7.760;2024-02-14T00:01:06;7.68;;;4.30;;
30020;SDS011;16861;52.294;7.760;2024-02-14T00:03:35;6.00;;;3.97;;
30020;SDS011;16861;52.294;7.760;2024-02-14T00:06:05;7.63;;;4.43;;
30020;SDS011;16861;52.294;7.760;2024-02-14T00:08:32;9.63;;;4.55;;
30020;SDS011;16861;52.294;7.760;2024-02-14T00:10:59;8.50;;;4.47;;
30020;SDS011;16861;52.294;7.760;2024-02-14T00:13:26;8.27;;;4.78;;
30020;SDS011;16861;52.294;7.760;2024-02-14T00:15:53;5.78;;;4.03;;
30020;SDS011;16861;52.294;7.760;2024-02-14T00:18:20;6.68;;;4.18;;
30020;SDS011;16861;52.294;7.760;2024-02-14T00:20:48;5.90;;;3.90;;
30020;SDS011;16861;52.294;7.760;2024-02-14T00:23:15;5.70;;;4.10;;
30020;SDS011;16861;52.294;7.760;2024-02-14T00:25:42;9.57;;;4.40;;
30020;SDS011;16861;52.294;7.760;2024-02-14T00:28:08;9.38;;;4.20;;
30020;SDS011;16861;52.294;7.760;2024-02-14T00:30:35;8.20;;;4.25;;
30020;SDS011;16861;52.294;7.760;2024-02-14T00:33:01;9.27;;;4.32;;
30020;SDS011;16861;52.294;7.760;2024-02-14T00:35:28;5.50;;;4.20;;
30020;SDS011;16861;52.294;7.760;2024-02-14T00:37:55;6.50;;;4.28;;
30020;SDS011;16861;52.294;7.760;2024-02-14T00:40:22;7.43;;;4.35;;
30020;SDS011;16861;52.294;7.760;2024-02-14T00:42:48;8.95;;;4.35;;
30020;SDS011;16861;52.294;7.760;2024-02-14T00:45:15;7.03;;;4.13;;
30020;SDS011;16861;52.294;7.760;2024-02-14T00:47:42;7.97;;;4.90;;
30020;SDS011;16861;52.294;7.760;2024-02-14T00:50:09;9.07;;;4.78;;
30020;SDS011;16861;52.294;7.760;2024-02-14T00:52:35;7.15;;;4.13;;
30020;SDS011;16861;52.294;7.760;2024-02-14T00:55:02;10.68;;;5.00;;
30020;SDS011;16861;52.294;7.760;2024-02-14T00:57:30;7.80;;;4.93;;
30020;SDS011;16861;52.294;7.760;2024-02-14T00:59:58;6.97;;;5.15;;
30020;SDS011;16861;52.294;7.760;2024-02-14T01:02:26;9.00;;;5.22;;
30020;SDS011;16861;52.294;7.760;2024-02-14T01:04:52;7.25;;;5.25;;
30020;SDS011;16861;52.294;7.760;2024-02-14T01:07:19;7.30;;;5.30;;
30020;SDS011;16861;52.294;7.760;2024-02-14T01:09:46;8.35;;;5.40;;
30020;SDS011;16861;52.294;7.760;2024-02-14T01:12:13;10.20;;;5.30;;
30020;SDS011;16861;52.294;7.760;2024-02-14T01:14:39;7.05;;;4.93;;
30020;SDS011;16861;52.294;7.760;2024-02-14T01:19:48;9.55;;;5.57;;
30020;SDS011;16861;52.294;7.760;2024-02-14T01:22:15;9.23;;;4.93;;
30020;SDS011;16861;52.294;7.760;2024-02-14T01:24:44;13.05;;;5.85;;
30020;SDS011;16861;52.294;7.760;2024-02-14T01:27:11;8.10;;;5.32;;
30020;SDS011;16861;52.294;7.760;2024-02-14T01:29:37;8.82;;;5.32;;
30020;SDS011;16861;52.294;7.760;2024-02-14T01:32:04;8.82;;;5.70;;
30020;SDS011;16861;52.294;7.760;2024-02-14T01:34:31;7.93;;;5.40;;
30020;SDS011;16861;52.294;7.760;2024-02-14T01:36:57;9.45;;;5.80;;
30020;SDS011;16861;52.294;7.760;2024-02-14T01:39:24;9.02;;;5.75;;
30020;SDS011;16861;52.294;7.760;2024-02-14T01:41:50;8.63;;;6.20;;
30020;SDS011;16861;52.294;7.760;2024-02-14T01:44:17;8.98;;;5.35;;
30020;SDS011;16861;52.294;7.760;2024-02-14T01:46:44;9.60;;;5.93;;
30020;SDS011;16861;52.294;7.760;2024-02-14T01:49:11;7.18;;;5.55;;
30020;SDS011;16861;52.294;7.760;2024-02-14T01:51:39;9.15;;;5.32;;
30020;SDS011;16861;52.294;7.760;2024-02-14T01:54:08;9.80;;;5.63;;
30020;SDS011;16861;52.294;7.760;2024-02-14T01:56:36;8.27;;;5.95;;
30020;SDS011;16861;52.294;7.760;2024-02-14T01:59:04;6.70;;;5.18;;
30020;SDS011;16861;52.294;7.760;2024-02-14T02:01:32;8.88;;;6.32;;
30020;SDS011;16861;52.294;7.760;2024-02-14T02:03:59;8.20;;;6.05;;
30020;SDS011;16861;52.294;7.760;2024-02-14T02:06:27;7.85;;;5.65;;
30020;SDS011;16861;52.294;7.760;2024-02-14T02:08:54;11.77;;;6.68;;
30020;SDS011;16861;52.294;7.760;2024-02-14T02:11:21;12.27;;;6.43;;
30020;SDS011;16861;52.294;7.760;2024-02-14T02:13:48;11.52;;;5.80;;
30020;SDS011;16861;52.294;7.760;2024-02-14T02:16:14;8.18;;;5.70;;
30020;SDS011;16861;52.294;7.760;2024-02-14T02:18:41;7.50;;;6.03;;
30020;SDS011;16861;52.294;7.760;2024-02-14T02:21:08;7.93;;;6.10;;
30020;SDS011;16861;52.294;7.760;2024-02-14T02:23:35;7.88;;;5.78;;
30020;SDS011;16861;52.294;7.760;2024-02-14T02:26:02;9.35;;;6.03;;
30020;SDS011;16861;52.294;7.760;2024-02-14T02:28:28;9.93;;;6.30;;
30020;SDS011;16861;52.294;7.760;2024-02-14T02:30:55;10.80;;;6.30;;
30020;SDS011;16861;52.294;7.760;2024-02-14T02:33:22;10.23;;;6.28;;
30020;SDS011;16861;52.294;7.760;2024-02-14T02:35:49;6.63;;;5.93;;
30020;SDS011;16861;52.294;7.760;2024-02-14T02:38:16;8.93;;;6.85;;
30020;SDS011;16861;52.294;7.760;2024-02-14T02:40:43;10.10;;;6.93;;
30020;SDS011;16861;52.294;7.760;2024-02-14T02:43:10;10.90;;;6.50;;
30020;SDS011;16861;52.294;7.760;2024-02-14T02:45:37;9.40;;;6.75;;
30020;SDS011;16861;52.294;7.760;2024-02-14T02:48:04;7.72;;;6.90;;
30020;SDS011;16861;52.294;7.760;2024-02-14T02:50:31;7.00;;;6.22;;
30020;SDS011;16861;52.294;7.760;2024-02-14T02:52:58;11.70;;;6.97;;
30020;SDS011;16861;52.294;7.760;2024-02-14T02:55:24;8.95;;;7.00;;
30020;SDS011;16861;52.294;7.760;2024-02-14T02:57:52;7.68;;;6.45;;
30020;SDS011;16861;52.294;7.760;2024-02-14T03:00:19;8.05;;;6.65;;
30020;SDS011;16861;52.294;7.760;2024-02-14T03:02:47;10.57;;;8.60;;
30020;SDS011;16861;52.294;7.760;2024-02-14T03:05:15;9.52;;;7.40;;
30020;SDS011;16861;52.294;7.760;2024-02-14T03:07:45;12.93;;;8.27;;
30020;SDS011;16861;52.294;7.760;2024-02-14T03:10:14;9.00;;;8.13;;
30020;SDS011;16861;52.294;7.760;2024-02-14T03:12:49;13.00;;;9.50;;
30020;SDS011;16861;52.294;7.760;2024-02-14T03:15:16;11.32;;;9.70;;
30020;SDS011;16861;52.294;7.760;2024-02-14T03:17:44;13.25;;;9.15;;
30020;SDS011;16861;52.294;7.760;2024-02-14T03:20:12;13.38;;;9.45;;
30020;SDS011;16861;52.294;7.760;2024-02-14T03:22:43;10.55;;;8.95;;
30020;SDS011;16861;52.294;7.760;2024-02-14T03:25:18;10.20;;;9.18;;
30020;SDS011;16861;52.294;7.760;2024-02-14T03:27:46;11.05;;;9.25;;
30020;SDS011;16861;52.294;7.760;2024-02-14T03:30:16;11.00;;;9.70;;
30020;SDS011;16861;52.294;7.760;2024-02-14T03:32:44;13.88;;;10.55;;
30020;SDS011;16861;52.294;7.760;2024-02-14T03:35:11;12.20;;;9.60;;
30020;SDS011;16861;52.294;7.760;2024-02-14T03:37:43;11.98;;;10.65;;
30020;SDS011;16861;52.294;7.760;2024-02-14T03:40:14;12.80;;;9.90;;
30020;SDS011;16861;52.294;7.760;2024-02-14T03:42:41;13.02;;;9.65;;
30020;SDS011;16861;52.294;7.760;2024-02-14T03:45:08;11.55;;;10.35;;
30020;SDS011;16861;52.294;7.760;2024-02-14T03:47:35;14.77;;;10.55;;
30020;SDS011;16861;52.294;7.760;2024-02-14T03:50:06;12.48;;;10.60;;
30020;SDS011;16861;52.294;7.760;2024-02-14T03:52:33;13.68;;;11.63;;
30020;SDS011;16861;52.294;7.760;2024-02-14T03:55:00;14.75;;;11.93;;
30020;SDS011;16861;52.294;7.760;2024-02-14T03:57:27;13.90;;;11.38;;
30020;SDS011;16861;52.294;7.760;2024-02-14T03:59:59;15.77;;;11.35;;
30020;SDS011;16861;52.294;7.760;2024-02-14T04:02:27;14.32;;;11.35;;
30020;SDS011;16861;52.294;7.760;2024-02-14T04:04:54;14.00;;;12.48;;
30020;SDS011;16861;52.294;7.760;2024-02-14T04:07:21;17.02;;;11.43;;
30020;SDS011;16861;52.294;7.760;2024-02-14T04:09:48;15.02;;;11.85;;
30020;SDS011;16861;52.294;7.760;2024-02-14T04:12:14;13.50;;;12.05;;
30020;SDS011;16861;52.294;7.760;2024-02-14T04:14:41;13.35;;;11.73;;
30020;SDS011;16861;52.294;7.760;2024-02-14T04:17:08;16.92;;;11.70;;
30020;SDS011;16861;52.294;7.760;2024-02-14T04:19:35;15.73;;;12.05;;
30020;SDS011;16861;52.294;7.760;2024-02-14T04:22:01;18.60;;;12.50;;
30020;SDS011;16861;52.294;7.760;2024-02-14T04:24:28;14.50;;;11.38;;
30020;SDS011;16861;52.294;7.760;2024-02-14T04:26:55;14.63;;;13.05;;
30020;SDS011;16861;52.294;7.760;2024-02-14T04:29:23;14.57;;;11.65;;
30020;SDS011;16861;52.294;7.760;2024-02-14T04:31:51;17.75;;;11.90;;
30020;SDS011;16861;52.294;7.760;2024-02-14T04:34:18;17.50;;;13.30;;
30020;SDS011;16861;52.294;7.760;2024-02-14T04:36:46;17.13;;;12.75;;
30020;SDS011;16861;52.294;7.760;2024-02-14T04:39:12;15.52;;;12.80;;
30020;SDS011;16861;52.294;7.760;2024-02-14T04:41:39;14.55;;;12.85;;
30020;SDS011;16861;52.294;7.760;2024-02-14T04:44:22;18.02;;;12.60;;
30020;SDS011;16861;52.294;7.760;2024-02-14T04:46:49;14.68;;;11.50;;
30020;SDS011;16861;52.294;7.760;2024-02-14T04:49:15;13.95;;;11.32;;
30020;SDS011;16861;52.294;7.760;2024-02-14T04:51:42;17.50;;;12.80;;
30020;SDS011;16861;52.294;7.760;2024-02-14T04:54:09;15.20;;;12.88;;
30020;SDS011;16861;52.294;7.760;2024-02-14T04:56:36;13.10;;;11.75;;
30020;SDS011;16861;52.294;7.760;2024-02-14T04:59:02;17.25;;;12.85;;
30020;SDS011;16861;52.294;7.760;2024-02-14T05:01:31;15.05;;;12.02;;
30020;SDS011;16861;52.294;7.760;2024-02-14T05:03:57;13.88;;;12.43;;
30020;SDS011;16861;52.294;7.760;2024-02-14T05:06:24;13.38;;;11.45;;
30020;SDS011;16861;52.294;7.760;2024-02-14T05:08:51;14.18;;;11.68;;
30020;SDS011;16861;52.294;7.760;2024-02-14T05:11:18;12.07;;;10.88;;
30020;SDS011;16861;52.294;7.760;2024-02-14T05:13:44;13.50;;;11.20;;
30020;SDS011;16861;52.294;7.760;2024-02-14T05:16:12;12.40;;;11.10;;
30020;SDS011;16861;52.294;7.760;2024-02-14T05:18:39;11.77;;;10.50;;
30020;SDS011;16861;52.294;7.760;2024-02-14T05:21:06;11.80;;;10.60;;
30020;SDS011;16861;52.294;7.760;2024-02-14T05:23:34;14.50;;;10.40;;
30020;SDS011;16861;52.294;7.760;2024-02-14T05:26:02;11.77;;;10.52;;
30020;SDS011;16861;52.294;7.760;2024-02-14T05:28:29;14.73;;;10.38;;
30020;SDS011;16861;52.294;7.760;2024-02-14T05:30:59;11.60;;;10.40;;
30020;SDS011;16861;52.294;7.760;2024-02-14T05:33:26;18.13;;;10.73;;
30020;SDS011;16861;52.294;7.760;2024-02-14T05:35:53;16.10;;;11.25;;
30020;SDS011;16861;52.294;7.760;2024-02-14T05:38:20;14.88;;;10.32;;
30020;SDS011;16861;52.294;7.760;2024-02-14T05:40:47;11.15;;;10.05;;
30020;SDS011;16861;52.294;7.760;2024-02-14T05:43:14;10.43;;;9.35;;
30020;SDS011;16861;52.294;7.760;2024-02-14T05:45:41;9.75;;;8.75;;
30020;SDS011;16861;52.294;7.760;2024-02-14T05:48:08;8.82;;;7.93;;
30020;SDS011;16861;52.294;7.760;2024-02-14T05:50:35;9.05;;;8.15;;
30020;SDS011;16861;52.294;7.760;2024-02-14T05:53:03;9.30;;;8.40;;
30020;SDS011;16861;52.294;7.760;2024-02-14T05:55:29;8.52;;;7.40;;
30020;SDS011;16861;52.294;7.760;2024-02-14T05:57:56;8.95;;;8.05;;
30020;SDS011;16861;52.294;7.760;2024-02-14T06:00:25;9.30;;;7.97;;
30020;SDS011;16861;52.294;7.760;2024-02-14T06:02:54;7.80;;;7.00;;
30020;SDS011;16861;52.294;7.760;2024-02-14T06:05:22;8.52;;;7.22;;
30020;SDS011;16861;52.294;7.760;2024-02-14T06:07:49;7.68;;;6.90;;
30020;SDS011;16861;52.294;7.760;2024-02-14T06:10:16;7.93;;;7.22;;
30020;SDS011;16861;52.294;7.760;2024-02-14T06:12:44;7.65;;;6.85;;
30020;SDS011;16861;52.294;7.760;2024-02-14T06:15:12;8.50;;;7.63;;
30020;SDS011;16861;52.294;7.760;2024-02-14T06:17:38;7.80;;;7.10;;
30020;SDS011;16861;52.294;7.760;2024-02-14T06:20:05;7.70;;;6.97;;
30020;SDS011;16861;52.294;7.760;2024-02-14T06:22:34;11.70;;;8.00;;
30020;SDS011;16861;52.294;7.760;2024-02-14T06:25:12;8.88;;;7.63;;
30020;SDS011;16861;52.294;7.760;2024-02-14T06:27:39;6.93;;;6.22;;
30020;SDS011;16861;52.294;7.760;2024-02-14T06:30:06;7.53;;;6.65;;
30020;SDS011;16861;52.294;7.760;2024-02-14T06:32:35;7.63;;;6.55;;
30020;SDS011;16861;52.294;7.760;2024-02-14T06:35:02;7.30;;;6.53;;
30020;SDS011;16861;52.294;7.760;2024-02-14T06:37:29;7.60;;;6.18;;
30020;SDS011;16861;52.294;7.760;2024-02-14T06:40:07;6.57;;;5.80;;
30020;SDS011;16861;52.294;7.760;2024-02-14T06:42:34;8.30;;;5.95;;
30020;SDS011;16861;52.294;7.760;2024-02-14T06:45:01;6.68;;;5.72;;
30020;SDS011;16861;52.294;7.760;2024-02-14T06:47:27;7.90;;;6.18;;
30020;SDS011;16861;52.294;7.760;2024-02-14T06:49:56;12.48;;;6.72;;
30020;SDS011;16861;52.294;7.760;2024-02-14T06:52:23;8.88;;;6.50;;
30020;SDS011;16861;52.294;7.760;2024-02-14T06:54:50;9.18;;;6.80;;
30020;SDS011;16861;52.294;7.760;2024-02-14T06:57:17;11.15;;;7.70;;
30020;SDS011;16861;52.294;7.760;2024-02-14T06:59:44;11.45;;;7.13;;
30020;SDS011;16861;52.294;7.760;2024-02-14T07:02:10;9.02;;;7.22;;
30020;SDS011;16861;52.294;7.760;2024-02-14T07:04:39;9.63;;;7.45;;
30020;SDS011;16861;52.294;7.760;2024-02-14T07:07:06;9.23;;;7.72;;
30020;SDS011;16861;52.294;7.760;2024-02-14T07:09:34;12.60;;;8.05;;
30020;SDS011;16861;52.294;7.760;2024-02-14T07:12:03;8.85;;;7.20;;
30020;SDS011;16861;52.294;7.760;2024-02-14T07:14:29;10.93;;;7.78;;
30020;SDS011;16861;52.294;7.760;2024-02-14T07:16:56;10.77;;;7.70;;
30020;SDS011;16861;52.294;7.760;2024-02-14T18:27:33;11.75;;;10.07;;
30020;SDS011;16861;52.294;7.760;2024-02-14T18:30:00;11.85;;;10.68;;
30020;SDS011;16861;52.294;7.760;2024-02-14T18:32:27;14.45;;;12.10;;
30020;SDS011;16861;52.294;7.760;2024-02-14T18:34:53;12.40;;;11.20;;
30020;SDS011;16861;52.294;7.760;2024-02-14T18:37:20;12.70;;;11.38;;
30020;SDS011;16861;52.294;7.760;2024-02-14T18:39:47;12.05;;;10.82;;
30020;SDS011;16861;52.294;7.760;2024-02-14T18:42:14;12.63;;;11.30;;
30020;SDS011;16861;52.294;7.760;2024-02-14T18:44:40;13.73;;;11.57;;
30020;SDS011;16861;52.294;7.760;2024-02-14T18:47:07;12.70;;;11.35;;
30020;SDS011;16861;52.294;7.760;2024-02-14T18:49:33;13.02;;;11.68;;
30020;SDS011;16861;52.294;7.760;2024-02-14T18:52:01;12.48;;;11.27;;
30020;SDS011;16861;52.294;7.760;2024-02-14T18:54:27;12.82;;;11.52;;
30020;SDS011;16861;52.294;7.760;2024-02-14T18:56:56;12.23;;;10.93;;
30020;SDS011;16861;52.294;7.760;2024-02-14T18:59:22;12.35;;;10.98;;
30020;SDS011;16861;52.294;7.760;2024-02-14T19:01:49;11.10;;;9.98;;
30020;SDS011;16861;52.294;7.760;2024-02-14T19:04:15;12.18;;;10.90;;
30020;SDS011;16861;52.294;7.760;2024-02-14T19:06:42;10.90;;;9.75;;
30020;SDS011;16861;52.294;7.760;2024-02-14T19:09:09;10.80;;;9.70;;
30020;SDS011;16861;52.294;7.760;2024-02-14T19:11:38;10.05;;;9.05;;
30020;SDS011;16861;52.294;7.760;2024-02-14T19:14:05;9.50;;;8.60;;
30020;SDS011;16861;52.294;7.760;2024-02-14T19:16:32;9.30;;;8.23;;
30020;SDS011;16861;52.294;7.760;2024-02-14T19:18:58;9.80;;;8.80;;
30020;SDS011;16861;52.294;7.760;2024-02-14T19:21:26;10.57;;;9.57;;
30020;SDS011;16861;52.294;7.760;2024-02-14T19:23:52;11.10;;;10.00;;
30020;SDS011;16861;52.294;7.760;2024-02-14T19:26:19;10.82;;;9.73;;
30020;SDS011;16861;52.294;7.760;2024-02-14T19:28:47;11.27;;;10.10;;
30020;SDS011;16861;52.294;7.760;2024-02-14T19:31:14;11.18;;;10.07;;
30020;SDS011;16861;52.294;7.760;2024-02-14T19:33:40;12.48;;;11.25;;
30020;SDS011;16861;52.294;7.760;2024-02-14T19:36:09;11.60;;;10.40;;
30020;SDS011;16861;52.294;7.760;2024-02-14T19:38:36;12.57;;;11.30;;
30020;SDS011;16861;52.294;7.760;2024-02-14T19:41:03;11.93;;;10.73;;
30020;SDS011;16861;52.294;7.760;2024-02-14T19:43:30;11.82;;;10.63;;
30020;SDS011;16861;52.294;7.760;2024-02-14T19:46:05;12.25;;;10.98;;
30020;SDS011;16861;52.294;7.760;2024-02-14T19:48:32;10.88;;;9.77;;
30020;SDS011;16861;52.294;7.760;2024-02-14T19:51:00;12.18;;;10.88;;
30020;SDS011;16861;52.294;7.760;2024-02-14T19:53:29;12.18;;;10.95;;
30020;SDS011;16861;52.294;7.760;2024-02-14T19:55:55;12.68;;;11.43;;
30020;SDS011;16861;52.294;7.760;2024-02-14T19:58:24;13.70;;;12.32;;
30020;SDS011;16861;52.294;7.760;2024-02-14T20:00:51;14.70;;;12.35;;
30020;SDS011;16861;52.294;7.760;2024-02-14T20:03:18;14.38;;;12.82;;
30020;SDS011;16861;52.294;7.760;2024-02-14T20:05:46;14.90;;;13.38;;
30020;SDS011;16861;52.294;7.760;2024-02-14T20:08:14;15.27;;;13.45;;
30020;SDS011;16861;52.294;7.760;2024-02-14T20:10:41;14.90;;;13.30;;
30020;SDS011;16861;52.294;7.760;2024-02-14T20:13:08;15.10;;;13.45;;
30020;SDS011;16861;52.294;7.760;2024-02-14T20:15:34;17.25;;;12.90;;
30020;SDS011;16861;52.294;7.760;2024-02-14T20:18:01;14.77;;;13.00;;
30020;SDS011;16861;52.294;7.760;2024-02-14T20:20:27;16.63;;;14.00;;
30020;SDS011;16861;52.294;7.760;2024-02-14T20:22:54;15.63;;;14.02;;
30020;SDS011;16861;52.294;7.760;2024-02-14T20:25:20;16.35;;;13.93;;
30020;SDS011;16861;52.294;7.760;2024-02-14T20:27:47;15.38;;;13.80;;
30020;SDS011;16861;52.294;7.760;2024-02-14T20:30:15;17.73;;;15.45;;
30020;SDS011;16861;52.294;7.760;2024-02-14T20:32:43;18.73;;;16.00;;
30020;SDS011;16861;52.294;7.760;2024-02-14T20:35:10;16.83;;;14.98;;
30020;SDS011;16861;52.294;7.760;2024-02-14T20:37:41;18.20;;;16.17;;
30020;SDS011;16861;52.294;7.760;2024-02-14T20:40:09;17.92;;;15.80;;
30020;SDS011;16861;52.294;7.760;2024-02-14T20:42:40;19.63;;;17.55;;
30020;SDS011;16861;52.294;7.760;2024-02-14T20:45:07;19.20;;;16.50;;
30020;SDS011;16861;52.294;7.760;2024-02-14T20:47:35;18.98;;;16.90;;
30020;SDS011;16861;52.294;7.760;2024-02-14T20:50:02;24.88;;;18.08;;
30020;SDS011;16861;52.294;7.760;2024-02-14T20:52:29;20.58;;;16.95;;
30020;SDS011;16861;52.294;7.760;2024-02-14T20:54:56;19.95;;;17.70;;
30020;SDS011;16861;52.294;7.760;2024-02-14T20:57:23;18.90;;;16.92;;
30020;SDS011;16861;52.294;7.760;2024-02-14T20:59:49;20.77;;;17.02;;
30020;SDS011;16861;52.294;7.760;2024-02-14T21:02:17;21.70;;;18.25;;
30020;SDS011;16861;52.294;7.760;2024-02-14T21:04:44;23.38;;;18.35;;
30020;SDS011;16861;52.294;7.760;2024-02-14T21:07:11;20.58;;;18.40;;
30020;SDS011;16861;52.294;7.760;2024-02-14T21:09:44;22.60;;;17.75;;
30020;SDS011;16861;52.294;7.760;2024-02-14T21:12:11;21.33;;;17.95;;
30020;SDS011;16861;52.294;7.760;2024-02-14T21:14:38;20.05;;;17.60;;
30020;SDS011;16861;52.294;7.760;2024-02-14T21:17:04;25.75;;;17.73;;
30020;SDS011;16861;52.294;7.760;2024-02-14T21:19:31;21.10;;;17.27;;
30020;SDS011;16861;52.294;7.760;2024-02-14T21:21:58;23.25;;;17.30;;
30020;SDS011;16861;52.294;7.760;2024-02-14T21:24:25;19.48;;;16.75;;
30020;SDS011;16861;52.294;7.760;2024-02-14T21:26:51;18.92;;;16.92;;
30020;SDS011;16861;52.294;7.760;2024-02-14T21:29:19;19.23;;;15.48;;
30020;SDS011;16861;52.294;7.760;2024-02-14T21:31:46;22.15;;;16.95;;
30020;SDS011;16861;52.294;7.760;2024-02-14T21:34:12;27.85;;;17.15;;
30020;SDS011;16861;52.294;7.760;2024-02-14T21:36:39;21.30;;;16.77;;
30020;SDS011;16861;52.294;7.760;2024-02-14T21:39:06;17.75;;;15.90;;
30020;SDS011;16861;52.294;7.760;2024-02-14T21:41:35;19.35;;;16.67;;
30020;SDS011;16861;52.294;7.760;2024-02-14T21:44:01;19.33;;;15.60;;
30020;SDS011;16861;52.294;7.760;2024-02-14T21:46:29;18.65;;;15.48;;
30020;SDS011;16861;52.294;7.760;2024-02-14T21:48:56;20.08;;;15.25;;
30020;SDS011;16861;52.294;7.760;2024-02-14T21:51:24;21.02;;;15.82;;
30020;SDS011;16861;52.294;7.760;2024-02-14T21:53:54;19.05;;;15.48;;
30020;SDS011;16861;52.294;7.760;2024-02-14T21:56:21;17.02;;;15.23;;
30020;SDS011;16861;52.294;7.760;2024-02-14T21:58:48;21.67;;;15.63;;
30020;SDS011;16861;52.294;7.760;2024-02-14T22:01:14;18.15;;;15.27;;
30020;SDS011;16861;52.294;7.760;2024-02-14T22:03:41;16.33;;;14.63;;
30020;SDS011;16861;52.294;7.760;2024-02-14T22:06:08;17.13;;;15.43;;
30020;SDS011;16861;52.294;7.760;2024-02-14T22:08:34;19.13;;;14.98;;
30020;SDS011;16861;52.294;7.760;2024-02-14T22:11:01;17.33;;;14.15;;
30020;SDS011;16861;52.294;7.760;2024-02-14T22:13:28;16.35;;;14.60;;
30020;SDS011;16861;52.294;7.760;2024-02-14T22:15:57;17.00;;;14.63;;
30020;SDS011;16861;52.294;7.760;2024-02-14T22:18:23;16.45;;;13.70;;
30020;SDS011;16861;52.294;7.760;2024-02-14T22:20:51;17.52;;;14.75;;
30020;SDS011;16861;52.294;7.760;2024-02-14T22:23:19;16.30;;;14.65;;
30020;SDS011;16861;52.294;7.760;2024-02-14T22:25:45;16.00;;;14.13;;
30020;SDS011;16861;52.294;7.760;2024-02-14T22:28:12;16.85;;;13.80;;
30020;SDS011;16861;52.294;7.760;2024-02-14T22:30:39;16.40;;;14.50;;
30020;SDS011;16861;52.294;7.760;2024-02-14T22:33:07;19.08;;;13.75;;
30020;SDS011;16861;52.294;7.760;2024-02-14T22:35:36;16.73;;;14.15;;
30020;SDS011;16861;52.294;7.760;2024-02-14T22:38:03;17.35;;;14.07;;
30020;SDS011;16861;52.294;7.760;2024-02-14T22:40:35;17.52;;;14.93;;
30020;SDS011;16861;52.294;7.760;2024-02-14T22:43:03;20.88;;;14.05;;
30020;SDS011;16861;52.294;7.760;2024-02-14T22:45:31;18.40;;;14.15;;
30020;SDS011;16861;52.294;7.760;2024-02-14T22:47:57;16.50;;;14.00;;
30020;SDS011;16861;52.294;7.760;2024-02-14T22:50:26;15.90;;;14.25;;
30020;SDS011;16861;52.294;7.760;2024-02-14T22:52:53;15.25;;;13.57;;
30020;SDS011;16861;52.294;7.760;2024-02-14T22:55:19;15.52;;;13.45;;
30020;SDS011;16861;52.294;7.760;2024-02-14T22:57:46;17.00;;;14.20;;
30020;SDS011;16861;52.294;7.760;2024-02-14T23:00:12;17.63;;;14.25;;
30020;SDS011;16861;52.294;7.760;2024-02-14T23:02:43;16.08;;;14.15;;
30020;SDS011;16861;52.294;7.760;2024-02-14T23:05:09;15.30;;;13.73;;
30020;SDS011;16861;52.294;7.760;2024-02-14T23:07:40;17.75;;;14.57;;
30020;SDS011;16861;52.294;7.760;2024-02-14T23:10:07;17.83;;;14.35;;
30020;SDS011;16861;52.294;7.760;2024-02-14T23:12:36;17.95;;;14.48;;
30020;SDS011;16861;52.294;7.760;2024-02-14T23:15:03;15.68;;;14.02;;
30020;SDS011;16861;52.294;7.760;2024-02-14T23:17:32;17.65;;;14.05;;
30020;SDS011;16861;52.294;7.760;2024-02-14T23:19:59;15.73;;;13.82;;
30020;SDS011;16861;52.294;7.760;2024-02-14T23:22:26;17.85;;;13.95;;
30020;SDS011;16861;52.294;7.760;2024-02-14T23:24:52;16.13;;;14.27;;
30020;SDS011;16861;52.294;7.760;2024-02-14T23:27:19;15.93;;;14.23;;
30020;SDS011;16861;52.294;7.760;2024-02-14T23:29:47;18.05;;;14.15;;
30020;SDS011;16861;52.294;7.760;2024-02-14T23:32:14;17.35;;;14.50;;
30020;SDS011;16861;52.294;7.760;2024-02-14T23:34:40;15.20;;;13.48;;
30020;SDS011;16861;52.294;7.760;2024-02-14T23:37:07;17.45;;;14.40;;
30020;SDS011;16861;52.294;7.760;2024-02-14T23:39:35;15.52;;;13.95;;
30020;SDS011;16861;52.294;7.760;2024-02-14T23:42:01;16.13;;;13.20;;
30020;SDS011;16861;52.294;7.760;2024-02-14T23:44:29;15.95;;;14.27;;
30020;SDS011;16861;52.294;7.760;2024-02-14T23:46:56;15.82;;;14.05;;
30020;SDS011;16861;52.294;7.760;2024-02-14T23:49:22;18.90;;;14.00;;
30020;SDS011;16861;52.294;7.760;2024-02-14T23:51:49;18.92;;;14.55;;
30020;SDS011;16861;52.294;7.760;2024-02-14T23:54:16;16.30;;;12.75;;
30020;SDS011;16861;52.294;7.760;2024-02-14T23:56:46;14.30;;;12.73;;
30020;SDS011;16861;52.294;7.760;2024-02-14T23:59:15;16.02;;;13.77;;
